Diane B. — WDG8255 — position and weather

sailwx.info

Track history (hours):
 
Tides and Currents Weather Stations Pressure Air Temp Water Temp Dewpoint Dewpoint Depression Visibility Wind Speed Wind Dir Waves Ship Positions

Diane B.

Owner: Bernert Barge lines, Oregon City, OR. More information available from US FCC via Universal Licensing System and Coast Guard Vessel Documentation Center.

Last reported at 2018-Apr-17 19:34 UTC. Time now 2018-Apr-20 16:47 UTC.
Position N 46°05' W 122°56'.

Length 22 m.

Type: Towing. MMSI: 367575580.

Date/timePositionNaut miles runAvg speedWind from/ knotsBaromVisibWave heightAir tempDewpointWater temp
2018-Apr-17 19:34N 46°05' W 122°56'0 0.0
2018-Apr-17 19:10N 46°05' W 122°56'1 4.0
2018-Apr-17 19:00N 46°06' W 122°57'1 2.3
2018-Apr-17 18:28N 46°07' W 122°58'0 0.5
2018-Apr-17 18:00N 46°07' W 122°58'0 0.4
2018-Apr-17 17:29N 46°07' W 122°58'2 3.9
2018-Apr-17 17:00N 46°05' W 122°56'  
2018-Apr-15 03:46N 46°05' W 122°56'1 3.8
2018-Apr-15 03:30N 46°06' W 122°57'1 1.9
2018-Apr-15 03:00N 46°07' W 122°58'0 0.7
2018-Apr-15 02:30N 46°07' W 122°58'0 0.8
2018-Apr-15 02:01N 46°07' W 122°58'0 0.8
2018-Apr-15 01:31N 46°07' W 122°58'0 0.0
2018-Apr-15 01:00N 46°07' W 122°58'2 0.3
2018-Apr-14 16:02N 46°05' W 122°56'0 0.0
2018-Apr-14 16:00N 46°05' W 122°56'2 4.1
2018-Apr-14 15:31N 46°07' W 122°58'1 1.0
2018-Apr-14 15:00N 46°06' W 122°58'0 0.9
2018-Apr-14 14:31N 46°07' W 122°58'510.0
2018-Apr-14 14:00N 46°03' W 122°53'5 9.8
2018-Apr-14 13:31N 45°59' W 122°50'5 9.4
2018-Apr-14 12:59N 45°54' W 122°48'5 9.5
2018-Apr-14 12:30N 45°50' W 122°48'5 9.4
2018-Apr-14 12:00N 45°45' W 122°46'5 9.4
2018-Apr-14 11:30N 45°40' W 122°46'4 7.3
2018-Apr-14 11:00N 45°37' W 122°47'0 0.1
2018-Apr-14 10:05N 45°37' W 122°47'0 1.7
2018-Apr-14 10:00N 45°37' W 122°47'1 2.5
2018-Apr-14 09:31N 45°38' W 122°47'3 4.6
2018-Apr-14 08:55N 45°38' W 122°43'3 7.9
2018-Apr-14 08:30N 45°37' W 122°39'4 8.5
2018-Apr-14 08:01N 45°36' W 122°34'4 8.6
2018-Apr-14 07:30N 45°34' W 122°28'4 8.5
2018-Apr-14 07:00N 45°34' W 122°22'4 8.2
2018-Apr-14 06:30N 45°33' W 122°16'612.4
2018-Apr-14 06:00N 45°35' W 122°08'2 3.7
2018-Apr-14 05:27N 45°35' W 122°05'  
2018-Apr-10 17:00N 45°37' W 122°02'3 5.8
2018-Apr-10 16:29N 45°35' W 122°05'3 5.8
2018-Apr-10 16:00N 45°35' W 122°09'3 5.6
2018-Apr-10 15:30N 45°34' W 122°13'3 5.1
2018-Apr-10 15:00N 45°33' W 122°16'3 5.4
2018-Apr-10 14:30N 45°33' W 122°20'2 4.5
2018-Apr-10 14:00N 45°34' W 122°23'2 4.9
2018-Apr-10 13:30N 45°34' W 122°26'3 5.1
2018-Apr-10 13:00N 45°35' W 122°29'3 5.4
2018-Apr-10 12:31N 45°36' W 122°33'3 5.2
2018-Apr-10 12:00N 45°36' W 122°37'3 5.6
2018-Apr-10 11:30N 45°37' W 122°40'3 5.6
2018-Apr-10 11:00N 45°39' W 122°44'2 4.9
2018-Apr-10 10:30N 45°38' W 122°47'1 2.4
2018-Apr-10 09:55N 45°37' W 122°47'0 0.1
2018-Apr-10 09:30N 45°37' W 122°47'0 0.0
2018-Apr-10 09:00N 45°37' W 122°47'3 5.2
2018-Apr-10 08:30N 45°39' W 122°46'4 7.1
2018-Apr-10 08:00N 45°43' W 122°46'4 7.1
2018-Apr-10 07:30N 45°46' W 122°46'3 7.0
2018-Apr-10 07:00N 45°50' W 122°48'3 6.6
2018-Apr-10 06:30N 45°53' W 122°48'3 6.5
2018-Apr-10 06:00N 45°56' W 122°49'3 6.7
2018-Apr-10 05:30N 45°59' W 122°51'4 7.0
2018-Apr-10 04:57N 46°03' W 122°53'3 6.6
2018-Apr-10 04:30N 46°05' W 122°55'1 1.1
2018-Apr-10 03:54N 46°05' W 122°56'  
Track history (hours):
 
Tides and Currents Weather Stations Pressure Air Temp Water Temp Dewpoint Dewpoint Depression Visibility Wind Speed Wind Dir Waves Ship Positions

Diane B.

Owner: Bernert Barge lines, Oregon City, OR. More information available from US FCC via Universal Licensing System and Coast Guard Vessel Documentation Center.

Last reported at 2018-Apr-17 19:34 UTC. Time now 2018-Apr-20 16:47 UTC.
Position N 46°05' W 122°56'.

Length 22 m.

Type: Towing. MMSI: 367575580.

Date/timePositionNaut miles runAvg speedWind from/ knotsBaromVisibWave heightAir tempDewpointWater temp
2018-Apr-17 19:34N 46°05' W 122°56'0 0.0
2018-Apr-17 19:10N 46°05' W 122°56'1 4.0
2018-Apr-17 19:00N 46°06' W 122°57'1 2.3
2018-Apr-17 18:28N 46°07' W 122°58'0 0.5
2018-Apr-17 18:00N 46°07' W 122°58'0 0.4
2018-Apr-17 17:29N 46°07' W 122°58'2 3.9
2018-Apr-17 17:00N 46°05' W 122°56'  
2018-Apr-15 03:46N 46°05' W 122°56'1 3.8
2018-Apr-15 03:30N 46°06' W 122°57'1 1.9
2018-Apr-15 03:00N 46°07' W 122°58'0 0.7
2018-Apr-15 02:30N 46°07' W 122°58'0 0.8
2018-Apr-15 02:01N 46°07' W 122°58'0 0.8
2018-Apr-15 01:31N 46°07' W 122°58'0 0.0
2018-Apr-15 01:00N 46°07' W 122°58'2 0.3
2018-Apr-14 16:02N 46°05' W 122°56'0 0.0
2018-Apr-14 16:00N 46°05' W 122°56'2 4.1
2018-Apr-14 15:31N 46°07' W 122°58'1 1.0
2018-Apr-14 15:00N 46°06' W 122°58'0 0.9
2018-Apr-14 14:31N 46°07' W 122°58'510.0
2018-Apr-14 14:00N 46°03' W 122°53'5 9.8
2018-Apr-14 13:31N 45°59' W 122°50'5 9.4
2018-Apr-14 12:59N 45°54' W 122°48'5 9.5
2018-Apr-14 12:30N 45°50' W 122°48'5 9.4
2018-Apr-14 12:00N 45°45' W 122°46'5 9.4
2018-Apr-14 11:30N 45°40' W 122°46'4 7.3
2018-Apr-14 11:00N 45°37' W 122°47'0 0.1
2018-Apr-14 10:05N 45°37' W 122°47'0 1.7
2018-Apr-14 10:00N 45°37' W 122°47'1 2.5
2018-Apr-14 09:31N 45°38' W 122°47'3 4.6
2018-Apr-14 08:55N 45°38' W 122°43'3 7.9
2018-Apr-14 08:30N 45°37' W 122°39'4 8.5
2018-Apr-14 08:01N 45°36' W 122°34'4 8.6
2018-Apr-14 07:30N 45°34' W 122°28'4 8.5
2018-Apr-14 07:00N 45°34' W 122°22'4 8.2
2018-Apr-14 06:30N 45°33' W 122°16'612.4
2018-Apr-14 06:00N 45°35' W 122°08'2 3.7
2018-Apr-14 05:27N 45°35' W 122°05'  
2018-Apr-10 17:00N 45°37' W 122°02'3 5.8
2018-Apr-10 16:29N 45°35' W 122°05'3 5.8
2018-Apr-10 16:00N 45°35' W 122°09'3 5.6
2018-Apr-10 15:30N 45°34' W 122°13'3 5.1
2018-Apr-10 15:00N 45°33' W 122°16'3 5.4
2018-Apr-10 14:30N 45°33' W 122°20'2 4.5
2018-Apr-10 14:00N 45°34' W 122°23'2 4.9
2018-Apr-10 13:30N 45°34' W 122°26'3 5.1
2018-Apr-10 13:00N 45°35' W 122°29'3 5.4
2018-Apr-10 12:31N 45°36' W 122°33'3 5.2
2018-Apr-10 12:00N 45°36' W 122°37'3 5.6
2018-Apr-10 11:30N 45°37' W 122°40'3 5.6
2018-Apr-10 11:00N 45°39' W 122°44'2 4.9
2018-Apr-10 10:30N 45°38' W 122°47'1 2.4
2018-Apr-10 09:55N 45°37' W 122°47'0 0.1
2018-Apr-10 09:30N 45°37' W 122°47'0 0.0
2018-Apr-10 09:00N 45°37' W 122°47'3 5.2
2018-Apr-10 08:30N 45°39' W 122°46'4 7.1
2018-Apr-10 08:00N 45°43' W 122°46'4 7.1
2018-Apr-10 07:30N 45°46' W 122°46'3 7.0
2018-Apr-10 07:00N 45°50' W 122°48'3 6.6
2018-Apr-10 06:30N 45°53' W 122°48'3 6.5
2018-Apr-10 06:00N 45°56' W 122°49'3 6.7
2018-Apr-10 05:30N 45°59' W 122°51'4 7.0
2018-Apr-10 04:57N 46°03' W 122°53'3 6.6
2018-Apr-10 04:30N 46°05' W 122°55'1 1.1
2018-Apr-10 03:54N 46°05' W 122°56'  

Dump ship's entire track history